sensor_id;sensor_type;location;lat;lon;timestamp;pressure;altitude;pressure_sealevel;temperature;humidity
21290;BME280;10804;48.988;2.408;2023-02-19T00:00:13;101855.47;;;12.98;66.73
21290;BME280;10804;48.988;2.408;2023-02-19T00:02:41;101846.75;;;12.98;66.74
21290;BME280;10804;48.988;2.408;2023-02-19T00:05:10;101851.09;;;12.97;66.86
21290;BME280;10804;48.988;2.408;2023-02-19T00:07:37;101849.38;;;12.96;67.12
21290;BME280;10804;48.988;2.408;2023-02-19T00:10:05;101856.34;;;12.97;66.85
21290;BME280;10804;48.988;2.408;2023-02-19T00:12:32;101845.03;;;12.95;67.05
21290;BME280;10804;48.988;2.408;2023-02-19T00:15:01;101840.66;;;12.93;66.72
21290;BME280;10804;48.988;2.408;2023-02-19T00:17:29;101851.16;;;12.94;67.03
21290;BME280;10804;48.988;2.408;2023-02-19T00:19:57;101852.91;;;12.94;66.91
21290;BME280;10804;48.988;2.408;2023-02-19T00:22:24;101851.16;;;12.94;66.76
21290;BME280;10804;48.988;2.408;2023-02-19T00:24:51;101856.41;;;12.94;66.88
21290;BME280;10804;48.988;2.408;2023-02-19T00:27:19;101846.78;;;12.93;67.13
21290;BME280;10804;48.988;2.408;2023-02-19T00:29:46;101843.28;;;12.93;67.15
21290;BME280;10804;48.988;2.408;2023-02-19T00:32:16;101847.69;;;12.92;66.69
21290;BME280;10804;48.988;2.408;2023-02-19T00:34:43;101842.44;;;12.92;66.87
21290;BME280;10804;48.988;2.408;2023-02-19T00:37:10;101832.00;;;12.91;67.19
21290;BME280;10804;48.988;2.408;2023-02-19T00:39:38;101831.16;;;12.90;67.20
21290;BME280;10804;48.988;2.408;2023-02-19T00:42:05;101828.53;;;12.90;66.98
21290;BME280;10804;48.988;2.408;2023-02-19T00:44:32;101825.03;;;12.88;67.08
21290;BME280;10804;48.988;2.408;2023-02-19T00:47:00;101818.06;;;12.89;66.70
21290;BME280;10804;48.988;2.408;2023-02-19T00:49:28;101824.16;;;12.89;66.95
21290;BME280;10804;48.988;2.408;2023-02-19T00:51:56;101825.03;;;12.88;66.78
21290;BME280;10804;48.988;2.408;2023-02-19T00:54:23;101825.13;;;12.85;66.76
21290;BME280;10804;48.988;2.408;2023-02-19T00:56:50;101813.75;;;12.86;66.73
21290;BME280;10804;48.988;2.408;2023-02-19T00:59:18;101819.00;;;12.85;67.04
21290;BME280;10804;48.988;2.408;2023-02-19T01:01:46;101816.38;;;12.86;66.98
21290;BME280;10804;48.988;2.408;2023-02-19T01:04:14;101825.97;;;12.86;67.12
21290;BME280;10804;48.988;2.408;2023-02-19T01:06:43;101831.19;;;12.86;66.76
21290;BME280;10804;48.988;2.408;2023-02-19T01:09:10;101825.13;;;12.85;66.78
21290;BME280;10804;48.988;2.408;2023-02-19T01:11:38;101819.00;;;12.85;66.82
21290;BME280;10804;48.988;2.408;2023-02-19T01:14:05;101818.16;;;12.84;67.05
21290;BME280;10804;48.988;2.408;2023-02-19T01:16:33;101826.91;;;12.83;66.84
21290;BME280;10804;48.988;2.408;2023-02-19T01:19:01;101828.63;;;12.84;66.99
21290;BME280;10804;48.988;2.408;2023-02-19T01:21:29;101828.63;;;12.83;67.14
21290;BME280;10804;48.988;2.408;2023-02-19T01:23:58;101817.34;;;12.81;66.90
21290;BME280;10804;48.988;2.408;2023-02-19T01:26:28;101825.19;;;12.82;66.83
21290;BME280;10804;48.988;2.408;2023-02-19T01:28:55;101821.69;;;12.80;66.87
21290;BME280;10804;48.988;2.408;2023-02-19T01:31:23;101826.94;;;12.80;67.02
21290;BME280;10804;48.988;2.408;2023-02-19T01:33:54;101829.63;;;12.77;67.09
21290;BME280;10804;48.988;2.408;2023-02-19T01:36:22;101840.00;;;12.82;66.77
21290;BME280;10804;48.988;2.408;2023-02-19T01:38:50;101832.16;;;12.80;67.18
21290;BME280;10804;48.988;2.408;2023-02-19T01:41:23;101839.19;;;12.78;67.05
21290;BME280;10804;48.988;2.408;2023-02-19T01:43:56;101841.81;;;12.78;67.19
21290;BME280;10804;48.988;2.408;2023-02-19T01:46:25;101837.47;;;12.77;67.03
21290;BME280;10804;48.988;2.408;2023-02-19T01:48:53;101834.84;;;12.79;67.16
21290;BME280;10804;48.988;2.408;2023-02-19T01:51:21;101833.13;;;12.76;66.87
21290;BME280;10804;48.988;2.408;2023-02-19T01:53:52;101836.59;;;12.77;66.83
21290;BME280;10804;48.988;2.408;2023-02-19T01:56:22;101840.97;;;12.76;67.18
21290;BME280;10804;48.988;2.408;2023-02-19T01:58:51;101834.88;;;12.74;66.99
21290;BME280;10804;48.988;2.408;2023-02-19T02:01:19;101834.03;;;12.75;66.81
21290;BME280;10804;48.988;2.408;2023-02-19T02:03:48;101841.00;;;12.75;67.18
21290;BME280;10804;48.988;2.408;2023-02-19T02:06:19;101847.13;;;12.75;66.95
21290;BME280;10804;48.988;2.408;2023-02-19T02:08:49;101839.28;;;12.74;67.22
21290;BME280;10804;48.988;2.408;2023-02-19T02:11:37;101841.88;;;12.74;67.17
21290;BME280;10804;48.988;2.408;2023-02-19T02:14:06;101839.28;;;12.74;67.26
21290;BME280;10804;48.988;2.408;2023-02-19T02:16:40;101843.63;;;12.73;67.13
21290;BME280;10804;48.988;2.408;2023-02-19T02:19:24;101840.13;;;12.74;66.91
21290;BME280;10804;48.988;2.408;2023-02-19T02:22:05;101843.63;;;12.73;66.90
21290;BME280;10804;48.988;2.408;2023-02-19T02:24:52;101836.66;;;12.72;67.08
21290;BME280;10804;48.988;2.408;2023-02-19T02:27:37;101838.44;;;12.72;67.00
21290;BME280;10804;48.988;2.408;2023-02-19T02:30:15;101842.81;;;12.71;67.06
21290;BME280;10804;48.988;2.408;2023-02-19T02:32:48;101848.03;;;12.71;67.23
21290;BME280;10804;48.988;2.408;2023-02-19T02:35:22;101853.28;;;12.71;67.10
21290;BME280;10804;48.988;2.408;2023-02-19T02:37:54;101853.28;;;12.71;66.85
21290;BME280;10804;48.988;2.408;2023-02-19T02:40:24;101845.41;;;12.71;67.12
21290;BME280;10804;48.988;2.408;2023-02-19T02:42:51;101842.81;;;12.71;67.18
21290;BME280;10804;48.988;2.408;2023-02-19T02:45:27;101844.59;;;12.69;67.11
21290;BME280;10804;48.988;2.408;2023-02-19T02:48:27;101840.19;;;12.70;67.26
21290;BME280;10804;48.988;2.408;2023-02-19T02:50:59;101840.25;;;12.68;67.20
21290;BME280;10804;48.988;2.408;2023-02-19T02:53:36;101837.63;;;12.68;67.18
21290;BME280;10804;48.988;2.408;2023-02-19T02:56:23;101854.19;;;12.69;67.02
21290;BME280;10804;48.988;2.408;2023-02-19T02:58:52;101859.47;;;12.67;66.98
21290;BME280;10804;48.988;2.408;2023-02-19T03:01:26;101853.38;;;12.65;67.32
21290;BME280;10804;48.988;2.408;2023-02-19T03:04:16;101856.84;;;12.67;67.02
21290;BME280;10804;48.988;2.408;2023-02-19T03:06:46;101845.50;;;12.67;67.14
21290;BME280;10804;48.988;2.408;2023-02-19T03:09:19;101844.63;;;12.66;67.20
21290;BME280;10804;48.988;2.408;2023-02-19T03:11:49;101842.00;;;12.66;67.26
21290;BME280;10804;48.988;2.408;2023-02-19T03:14:38;101849.84;;;12.66;67.21
21290;BME280;10804;48.988;2.408;2023-02-19T03:17:30;101844.66;;;12.65;67.14
21290;BME280;10804;48.988;2.408;2023-02-19T03:20:16;101841.16;;;12.64;66.89
21290;BME280;10804;48.988;2.408;2023-02-19T03:22:47;101842.06;;;12.63;67.13
21290;BME280;10804;48.988;2.408;2023-02-19T03:25:18;101842.06;;;12.63;67.13
21290;BME280;10804;48.988;2.408;2023-02-19T03:28:07;101839.47;;;12.62;67.07
21290;BME280;10804;48.988;2.408;2023-02-19T03:30:39;101849.91;;;12.63;66.91
21290;BME280;10804;48.988;2.408;2023-02-19T03:33:10;101847.28;;;12.63;67.32
21290;BME280;10804;48.988;2.408;2023-02-19T03:35:42;101849.91;;;12.63;67.14
21290;BME280;10804;48.988;2.408;2023-02-19T03:38:15;101840.34;;;12.62;67.06
21290;BME280;10804;48.988;2.408;2023-02-19T03:41:03;101836.00;;;12.61;67.24
21290;BME280;10804;48.988;2.408;2023-02-19T03:43:37;101839.50;;;12.60;67.16
21290;BME280;10804;48.988;2.408;2023-02-19T03:46:08;101828.16;;;12.60;66.96
21290;BME280;10804;48.988;2.408;2023-02-19T03:48:47;101830.78;;;12.60;67.08
21290;BME280;10804;48.988;2.408;2023-02-19T03:51:26;101821.22;;;12.59;67.13
21290;BME280;10804;48.988;2.408;2023-02-19T03:54:10;101835.16;;;12.59;67.12
21290;BME280;10804;48.988;2.408;2023-02-19T03:56:44;101843.03;;;12.59;67.01
21290;BME280;10804;48.988;2.408;2023-02-19T03:59:16;101836.91;;;12.59;67.01
21290;BME280;10804;48.988;2.408;2023-02-19T04:01:50;101835.16;;;12.59;66.98
21290;BME280;10804;48.988;2.408;2023-02-19T04:04:25;101846.50;;;12.58;67.30
21290;BME280;10804;48.988;2.408;2023-02-19T04:06:57;101845.66;;;12.56;67.08
21290;BME280;10804;48.988;2.408;2023-02-19T04:09:35;101850.88;;;12.58;67.17
21290;BME280;10804;48.988;2.408;2023-02-19T04:12:08;101854.41;;;12.57;67.18
21290;BME280;10804;48.988;2.408;2023-02-19T04:14:40;101856.13;;;12.56;67.13
21290;BME280;10804;48.988;2.408;2023-02-19T04:17:13;101858.75;;;12.56;67.07
21290;BME280;10804;48.988;2.408;2023-02-19T04:19:47;101857.03;;;12.55;67.28
21290;BME280;10804;48.988;2.408;2023-02-19T04:22:16;101857.91;;;12.56;67.15
21290;BME280;10804;48.988;2.408;2023-02-19T04:24:47;101865.78;;;12.54;67.23
21290;BME280;10804;48.988;2.408;2023-02-19T04:27:15;101872.72;;;12.55;67.04
21290;BME280;10804;48.988;2.408;2023-02-19T04:29:42;101872.72;;;12.55;67.00
21290;BME280;10804;48.988;2.408;2023-02-19T04:32:11;101871.00;;;12.54;67.21
21290;BME280;10804;48.988;2.408;2023-02-19T04:34:39;101876.25;;;12.53;66.94
21290;BME280;10804;48.988;2.408;2023-02-19T04:37:07;101877.97;;;12.54;67.18
21290;BME280;10804;48.988;2.408;2023-02-19T04:39:35;101879.75;;;12.53;66.95
21290;BME280;10804;48.988;2.408;2023-02-19T04:42:03;101881.47;;;12.53;66.96
21290;BME280;10804;48.988;2.408;2023-02-19T04:44:30;101874.50;;;12.53;67.36
21290;BME280;10804;48.988;2.408;2023-02-19T04:46:59;101882.38;;;12.52;67.01
21290;BME280;10804;48.988;2.408;2023-02-19T04:49:26;101881.50;;;12.51;67.20
21290;BME280;10804;48.988;2.408;2023-02-19T04:51:54;101894.59;;;12.51;67.18
21290;BME280;10804;48.988;2.408;2023-02-19T04:54:22;101898.06;;;12.52;67.08
21290;BME280;10804;48.988;2.408;2023-02-19T04:56:50;101898.06;;;12.52;67.00
21290;BME280;10804;48.988;2.408;2023-02-19T04:59:17;101914.66;;;12.52;66.92
21290;BME280;10804;48.988;2.408;2023-02-19T05:01:44;101910.28;;;12.51;67.02
21290;BME280;10804;48.988;2.408;2023-02-19T05:04:12;101912.06;;;12.51;67.07
21290;BME280;10804;48.988;2.408;2023-02-19T05:06:39;101914.69;;;12.49;67.10
21290;BME280;10804;48.988;2.408;2023-02-19T05:09:06;101920.78;;;12.50;67.27
21290;BME280;10804;48.988;2.408;2023-02-19T05:11:35;101923.41;;;12.50;66.93
21290;BME280;10804;48.988;2.408;2023-02-19T05:14:05;101925.16;;;12.49;67.30
21290;BME280;10804;48.988;2.408;2023-02-19T05:16:34;101925.16;;;12.49;67.26
21290;BME280;10804;48.988;2.408;2023-02-19T05:19:01;101935.63;;;12.49;66.81
21290;BME280;10804;48.988;2.408;2023-02-19T05:21:29;101926.03;;;12.48;67.20
21290;BME280;10804;48.988;2.408;2023-02-19T05:23:56;101930.44;;;12.48;67.27
21290;BME280;10804;48.988;2.408;2023-02-19T05:26:23;101933.03;;;12.48;67.02
21290;BME280;10804;48.988;2.408;2023-02-19T05:28:53;101932.16;;;12.47;67.20
21290;BME280;10804;48.988;2.408;2023-02-19T05:31:20;101934.78;;;12.46;67.28
21290;BME280;10804;48.988;2.408;2023-02-19T05:33:48;101935.66;;;12.46;67.00
21290;BME280;10804;48.988;2.408;2023-02-19T05:36:19;101928.72;;;12.45;67.22
21290;BME280;10804;48.988;2.408;2023-02-19T05:38:47;101944.41;;;12.45;66.92
21290;BME280;10804;48.988;2.408;2023-02-19T05:41:20;101943.53;;;12.46;67.23
21290;BME280;10804;48.988;2.408;2023-02-19T05:43:48;101946.13;;;12.46;67.00
21290;BME280;10804;48.988;2.408;2023-02-19T05:46:19;101942.69;;;12.44;67.02
21290;BME280;10804;48.988;2.408;2023-02-19T05:48:46;101947.91;;;12.44;67.14
21290;BME280;10804;48.988;2.408;2023-02-19T05:51:16;101943.53;;;12.43;67.30
21290;BME280;10804;48.988;2.408;2023-02-19T05:53:44;101953.16;;;12.43;67.04
21290;BME280;10804;48.988;2.408;2023-02-19T05:56:23;101956.63;;;12.43;67.07
21290;BME280;10804;48.988;2.408;2023-02-19T05:58:52;101956.63;;;12.43;67.25
21290;BME280;10804;48.988;2.408;2023-02-19T06:01:23;101953.16;;;12.43;67.20
21290;BME280;10804;48.988;2.408;2023-02-19T06:03:50;101951.44;;;12.42;67.14
21290;BME280;10804;48.988;2.408;2023-02-19T06:06:18;101954.91;;;12.42;67.12
21290;BME280;10804;48.988;2.408;2023-02-19T06:08:47;101959.28;;;12.42;67.32
21290;BME280;10804;48.988;2.408;2023-02-19T06:11:15;101960.13;;;12.42;67.06
21290;BME280;10804;48.988;2.408;2023-02-19T06:13:43;101949.72;;;12.41;67.36
21290;BME280;10804;48.988;2.408;2023-02-19T06:16:10;101947.94;;;12.41;67.37
21290;BME280;10804;48.988;2.408;2023-02-19T06:18:39;101947.09;;;12.41;67.14
21290;BME280;10804;48.988;2.408;2023-02-19T06:21:08;101949.72;;;12.41;67.14
21290;BME280;10804;48.988;2.408;2023-02-19T06:23:36;101954.06;;;12.39;67.22
21290;BME280;10804;48.988;2.408;2023-02-19T06:26:08;101950.63;;;12.38;67.23
21290;BME280;10804;48.988;2.408;2023-02-19T06:28:36;101959.31;;;12.39;67.06
21290;BME280;10804;48.988;2.408;2023-02-19T06:31:04;101964.53;;;12.39;67.12
21290;BME280;10804;48.988;2.408;2023-02-19T06:33:32;101962.81;;;12.39;67.21
21290;BME280;10804;48.988;2.408;2023-02-19T06:36:02;101970.66;;;12.39;67.14
21290;BME280;10804;48.988;2.408;2023-02-19T06:38:30;101974.13;;;12.40;67.09
21290;BME280;10804;48.988;2.408;2023-02-19T06:40:59;101978.50;;;12.39;67.00
21290;BME280;10804;48.988;2.408;2023-02-19T06:43:27;101974.16;;;12.38;67.25
21290;BME280;10804;48.988;2.408;2023-02-19T06:45:56;101976.78;;;12.38;67.06
21290;BME280;10804;48.988;2.408;2023-02-19T06:48:24;101968.94;;;12.38;67.32
21290;BME280;10804;48.988;2.408;2023-02-19T06:50:51;101978.50;;;12.38;67.39
21290;BME280;10804;48.988;2.408;2023-02-19T06:53:20;101983.75;;;12.38;67.16
21290;BME280;10804;48.988;2.408;2023-02-19T06:55:54;101988.13;;;12.37;67.33
21290;BME280;10804;48.988;2.408;2023-02-19T06:58:22;101995.09;;;12.38;67.26
21290;BME280;10804;48.988;2.408;2023-02-19T07:00:49;101998.59;;;12.37;67.36
21290;BME280;10804;48.988;2.408;2023-02-19T07:03:17;101995.97;;;12.37;67.05
21290;BME280;10804;48.988;2.408;2023-02-19T07:05:44;102006.41;;;12.39;67.29
21290;BME280;10804;48.988;2.408;2023-02-19T07:08:12;102002.09;;;12.36;67.37
21290;BME280;10804;48.988;2.408;2023-02-19T07:10:40;102006.44;;;12.36;67.40
21290;BME280;10804;48.988;2.408;2023-02-19T07:13:08;102009.94;;;12.36;67.26
21290;BME280;10804;48.988;2.408;2023-02-19T07:15:35;102008.19;;;12.37;67.38
21290;BME280;10804;48.988;2.408;2023-02-19T07:18:02;102016.91;;;12.36;67.27
21290;BME280;10804;48.988;2.408;2023-02-19T07:20:32;102023.03;;;12.36;67.10
21290;BME280;10804;48.988;2.408;2023-02-19T07:22:59;102017.78;;;12.36;67.15
21290;BME280;10804;48.988;2.408;2023-02-19T07:25:26;102014.31;;;12.34;67.11
21290;BME280;10804;48.988;2.408;2023-02-19T07:27:55;102026.50;;;12.35;67.15
21290;BME280;10804;48.988;2.408;2023-02-19T07:30:22;102031.72;;;12.35;67.25
21290;BME280;10804;48.988;2.408;2023-02-19T07:32:50;102039.59;;;12.35;67.25
21290;BME280;10804;48.988;2.408;2023-02-19T07:35:17;102037.84;;;12.34;67.20
21290;BME280;10804;48.988;2.408;2023-02-19T07:37:44;102040.47;;;12.34;67.12
21290;BME280;10804;48.988;2.408;2023-02-19T07:40:11;102042.25;;;12.32;67.28
21290;BME280;10804;48.988;2.408;2023-02-19T07:42:41;102039.63;;;12.34;67.00
21290;BME280;10804;48.988;2.408;2023-02-19T07:45:10;102041.34;;;12.35;67.38
21290;BME280;10804;48.988;2.408;2023-02-19T07:47:38;102040.47;;;12.34;67.20
21290;BME280;10804;48.988;2.408;2023-02-19T07:50:06;102043.97;;;12.35;67.40
21290;BME280;10804;48.988;2.408;2023-02-19T07:52:33;102049.22;;;12.33;67.12
21290;BME280;10804;48.988;2.408;2023-02-19T07:55:00;102049.22;;;12.33;67.29
21290;BME280;10804;48.988;2.408;2023-02-19T07:57:28;102066.66;;;12.33;67.32
21290;BME280;10804;48.988;2.408;2023-02-19T07:59:56;102064.91;;;12.33;67.37
21290;BME280;10804;48.988;2.408;2023-02-19T08:02:25;102070.13;;;12.33;67.31
21290;BME280;10804;48.988;2.408;2023-02-19T08:05:09;102074.53;;;12.33;67.25
21290;BME280;10804;48.988;2.408;2023-02-19T08:07:38;102079.75;;;12.33;67.29
21290;BME280;10804;48.988;2.408;2023-02-19T08:10:06;102075.38;;;12.33;67.24
21290;BME280;10804;48.988;2.408;2023-02-19T08:12:55;102072.75;;;12.33;67.20
21290;BME280;10804;48.988;2.408;2023-02-19T08:15:36;102075.38;;;12.35;67.23
21290;BME280;10804;48.988;2.408;2023-02-19T08:18:05;102077.09;;;12.34;67.33
21290;BME280;10804;48.988;2.408;2023-02-19T08:20:32;102073.63;;;12.34;67.30
21290;BME280;10804;48.988;2.408;2023-02-19T08:23:00;102080.59;;;12.35;67.11
21290;BME280;10804;48.988;2.408;2023-02-19T08:25:27;102077.09;;;12.34;67.15
21290;BME280;10804;48.988;2.408;2023-02-19T08:27:54;102071.88;;;12.34;67.09
21290;BME280;10804;48.988;2.408;2023-02-19T08:30:22;102084.06;;;12.35;67.11
21290;BME280;10804;48.988;2.408;2023-02-19T08:32:49;102073.59;;;12.35;67.30
21290;BME280;10804;48.988;2.408;2023-02-19T08:35:18;102084.94;;;12.36;67.28
21290;BME280;10804;48.988;2.408;2023-02-19T08:37:45;102072.69;;;12.38;67.14
21290;BME280;10804;48.988;2.408;2023-02-19T08:40:12;102071.84;;;12.37;67.24
21290;BME280;10804;48.988;2.408;2023-02-19T08:42:39;102082.31;;;12.37;67.16
21290;BME280;10804;48.988;2.408;2023-02-19T08:45:08;102073.56;;;12.38;67.19
21290;BME280;10804;48.988;2.408;2023-02-19T08:47:35;102075.31;;;12.39;67.29
21290;BME280;10804;48.988;2.408;2023-02-19T08:50:03;102070.06;;;12.39;66.96
21290;BME280;10804;48.988;2.408;2023-02-19T08:52:32;102082.25;;;12.40;67.11
21290;BME280;10804;48.988;2.408;2023-02-19T08:55:00;102072.63;;;12.42;66.87
21290;BME280;10804;48.988;2.408;2023-02-19T08:57:27;102082.25;;;12.40;66.81
21290;BME280;10804;48.988;2.408;2023-02-19T08:59:55;102080.53;;;12.38;66.85
21290;BME280;10804;48.988;2.408;2023-02-19T09:02:23;102081.44;;;12.35;66.81
21290;BME280;10804;48.988;2.408;2023-02-19T09:04:50;102071.81;;;12.40;66.70
21290;BME280;10804;48.988;2.408;2023-02-19T09:07:18;102069.13;;;12.43;66.94
21290;BME280;10804;48.988;2.408;2023-02-19T09:09:48;102083.06;;;12.47;66.87
21290;BME280;10804;48.988;2.408;2023-02-19T09:12:15;102093.50;;;12.48;66.84
21290;BME280;10804;48.988;2.408;2023-02-19T09:14:42;102089.13;;;12.50;66.91
21290;BME280;10804;48.988;2.408;2023-02-19T09:17:10;102094.28;;;12.55;66.83
21290;BME280;10804;48.988;2.408;2023-02-19T09:19:37;102094.28;;;12.56;66.97
21290;BME280;10804;48.988;2.408;2023-02-19T09:22:05;102085.59;;;12.54;66.82
21290;BME280;10804;48.988;2.408;2023-02-19T09:24:32;102091.59;;;12.61;66.98
21290;BME280;10804;48.988;2.408;2023-02-19T09:27:00;102100.28;;;12.63;66.94
21290;BME280;10804;48.988;2.408;2023-02-19T09:29:28;102092.44;;;12.64;66.60
21290;BME280;10804;48.988;2.408;2023-02-19T09:31:55;102091.53;;;12.67;66.73
21290;BME280;10804;48.988;2.408;2023-02-19T09:34:24;102095.88;;;12.68;66.73
21290;BME280;10804;48.988;2.408;2023-02-19T09:36:52;102094.09;;;12.70;66.79
21290;BME280;10804;48.988;2.408;2023-02-19T09:39:20;102098.44;;;12.72;66.99
21290;BME280;10804;48.988;2.408;2023-02-19T09:41:48;102100.16;;;12.73;66.96
21290;BME280;10804;48.988;2.408;2023-02-19T09:44:23;102106.28;;;12.75;66.63
21290;BME280;10804;48.988;2.408;2023-02-19T09:46:52;102108.00;;;12.76;66.77
21290;BME280;10804;48.988;2.408;2023-02-19T09:49:25;102103.59;;;12.78;66.59
21290;BME280;10804;48.988;2.408;2023-02-19T09:51:55;102110.56;;;12.79;66.83
21290;BME280;10804;48.988;2.408;2023-02-19T09:54:29;102104.44;;;12.80;66.79
21290;BME280;10804;48.988;2.408;2023-02-19T09:57:00;102110.56;;;12.81;66.56
21290;BME280;10804;48.988;2.408;2023-02-19T09:59:32;102106.16;;;12.81;66.88
21290;BME280;10804;48.988;2.408;2023-02-19T10:02:04;102113.16;;;12.82;66.81
21290;BME280;10804;48.988;2.408;2023-02-19T10:04:40;102113.16;;;12.82;66.52
21290;BME280;10804;48.988;2.408;2023-02-19T10:07:11;102113.13;;;12.85;66.65
21290;BME280;10804;48.988;2.408;2023-02-19T10:09:39;102119.19;;;12.87;66.42
21290;BME280;10804;48.988;2.408;2023-02-19T10:12:13;102125.25;;;12.89;66.58
21290;BME280;10804;48.988;2.408;2023-02-19T10:14:45;102123.53;;;12.90;66.48
21290;BME280;10804;48.988;2.408;2023-02-19T10:17:20;102134.00;;;12.91;66.73
21290;BME280;10804;48.988;2.408;2023-02-19T10:19:48;102144.44;;;12.94;66.66
21290;BME280;10804;48.988;2.408;2023-02-19T10:22:18;102126.13;;;12.94;66.38
21290;BME280;10804;48.988;2.408;2023-02-19T10:24:50;102126.94;;;12.96;66.71
21290;BME280;10804;48.988;2.408;2023-02-19T10:27:19;102128.69;;;12.97;66.35
21290;BME280;10804;48.988;2.408;2023-02-19T10:29:50;102146.13;;;13.00;66.43
21290;BME280;10804;48.988;2.408;2023-02-19T10:32:20;102151.34;;;13.01;66.73
21290;BME280;10804;48.988;2.408;2023-02-19T10:35:06;102146.09;;;13.03;66.62
21290;BME280;10804;48.988;2.408;2023-02-19T10:37:33;102160.03;;;13.05;66.60
21290;BME280;10804;48.988;2.408;2023-02-19T10:40:01;102165.25;;;13.06;66.55
21290;BME280;10804;48.988;2.408;2023-02-19T10:42:30;102167.00;;;13.07;66.34
21290;BME280;10804;48.988;2.408;2023-02-19T10:44:59;102165.19;;;13.09;66.39
21290;BME280;10804;48.988;2.408;2023-02-19T10:47:30;102175.69;;;13.11;66.18
21290;BME280;10804;48.988;2.408;2023-02-19T10:49:59;102165.28;;;13.03;66.38
21290;BME280;10804;48.988;2.408;2023-02-19T10:52:28;102184.38;;;13.14;66.25
21290;BME280;10804;48.988;2.408;2023-02-19T10:55:15;102183.47;;;13.15;66.63
21290;BME280;10804;48.988;2.408;2023-02-19T10:57:42;102185.19;;;13.16;66.52
21290;BME280;10804;48.988;2.408;2023-02-19T11:00:21;102184.28;;;13.19;66.66
21290;BME280;10804;48.988;2.408;2023-02-19T11:03:13;102180.78;;;13.18;66.43
21290;BME280;10804;48.988;2.408;2023-02-19T11:05:53;102186.88;;;13.20;66.39
21290;BME280;10804;48.988;2.408;2023-02-19T11:08:23;102165.06;;;13.21;66.42
21290;BME280;10804;48.988;2.408;2023-02-19T11:10:51;102168.50;;;13.23;66.65
21290;BME280;10804;48.988;2.408;2023-02-19T11:13:25;102188.56;;;13.26;66.30
21290;BME280;10804;48.988;2.408;2023-02-19T11:15:57;102185.13;;;13.22;65.59
21290;BME280;10804;48.988;2.408;2023-02-19T11:18:27;102180.78;;;13.20;65.55
21290;BME280;10804;48.988;2.408;2023-02-19T11:20:56;102176.47;;;13.16;65.29
21290;BME280;10804;48.988;2.408;2023-02-19T11:23:26;102169.53;;;13.13;65.59
21290;BME280;10804;48.988;2.408;2023-02-19T11:25:56;102177.28;;;13.21;65.23
21290;BME280;10804;48.988;2.408;2023-02-19T11:28:30;102173.75;;;13.23;65.33
21290;BME280;10804;48.988;2.408;2023-02-19T11:31:22;102180.72;;;13.24;65.79
21290;BME280;10804;48.988;2.408;2023-02-19T11:33:53;102192.03;;;13.28;65.46
21290;BME280;10804;48.988;2.408;2023-02-19T11:36:30;102194.63;;;13.29;65.53
21290;BME280;10804;48.988;2.408;2023-02-19T11:39:20;102197.22;;;13.31;65.52
21290;BME280;10804;48.988;2.408;2023-02-19T11:42:06;102208.56;;;13.31;65.58
21290;BME280;10804;48.988;2.408;2023-02-19T11:44:44;102208.56;;;13.31;65.42
21290;BME280;10804;48.988;2.408;2023-02-19T11:47:44;102218.16;;;13.34;65.57
21290;BME280;10804;48.988;2.408;2023-02-19T11:50:21;102201.56;;;13.33;65.87
21290;BME280;10804;48.988;2.408;2023-02-19T11:53:05;102205.88;;;13.37;65.65
21290;BME280;10804;48.988;2.408;2023-02-19T11:55:48;102192.78;;;13.37;65.76
21290;BME280;10804;48.988;2.408;2023-02-19T11:58:35;102188.38;;;13.38;66.07
21290;BME280;10804;48.988;2.408;2023-02-19T12:01:15;102195.34;;;13.40;65.84
21290;BME280;10804;48.988;2.408;2023-02-19T12:04:00;102197.13;;;13.40;66.04
21290;BME280;10804;48.988;2.408;2023-02-19T12:06:40;102200.56;;;13.42;65.90
21290;BME280;10804;48.988;2.408;2023-02-19T12:09:32;102204.03;;;13.42;66.02
21290;BME280;10804;48.988;2.408;2023-02-19T12:12:18;102198.81;;;13.42;66.08
21290;BME280;10804;48.988;2.408;2023-02-19T12:15:01;102204.91;;;13.44;65.97
21290;BME280;10804;48.988;2.408;2023-02-19T12:17:57;102197.06;;;13.44;66.01
21290;BME280;10804;48.988;2.408;2023-02-19T12:20:37;102186.53;;;13.46;65.66
21290;BME280;10804;48.988;2.408;2023-02-19T12:23:32;102182.16;;;13.46;66.00
21290;BME280;10804;48.988;2.408;2023-02-19T12:26:06;102196.09;;;13.48;66.09
21290;BME280;10804;48.988;2.408;2023-02-19T12:29:15;102183.84;;;13.50;66.03
21290;BME280;10804;48.988;2.408;2023-02-19T12:35:08;102172.44;;;13.53;66.00
21290;BME280;10804;48.988;2.408;2023-02-19T12:37:46;102170.72;;;13.52;66.27
21290;BME280;10804;48.988;2.408;2023-02-19T12:40:36;102175.00;;;13.57;66.19
21290;BME280;10804;48.988;2.408;2023-02-19T12:43:10;102176.72;;;13.58;65.92
21290;BME280;10804;48.988;2.408;2023-02-19T12:45:42;102178.44;;;13.62;65.80
21290;BME280;10804;48.988;2.408;2023-02-19T12:48:18;102184.50;;;13.66;66.24
21290;BME280;10804;48.988;2.408;2023-02-19T12:50:54;102182.69;;;13.68;65.92
21290;BME280;10804;48.988;2.408;2023-02-19T12:53:31;102177.44;;;13.71;65.72
21290;BME280;10804;48.988;2.408;2023-02-19T12:56:04;102176.50;;;13.73;65.86
21290;BME280;10804;48.988;2.408;2023-02-19T12:58:38;102172.13;;;13.75;65.76
21290;BME280;10804;48.988;2.408;2023-02-19T13:01:09;102165.97;;;13.78;66.00
21290;BME280;10804;48.988;2.408;2023-02-19T13:03:44;102163.28;;;13.81;65.80
21290;BME280;10804;48.988;2.408;2023-02-19T13:06:27;102160.63;;;13.82;65.97
21290;BME280;10804;48.988;2.408;2023-02-19T13:09:01;102151.00;;;13.83;65.90
21290;BME280;10804;48.988;2.408;2023-02-19T13:11:33;102144.84;;;13.85;65.71
21290;BME280;10804;48.988;2.408;2023-02-19T13:14:05;102147.44;;;13.87;65.60
21290;BME280;10804;48.988;2.408;2023-02-19T13:16:38;102147.38;;;13.90;65.72